Flight Track Log - Related Links

Times and Time Zones

All times are in EDT time to prevent confusion due to time zone crossing. See the AAL1428 flight status page for this flight to view local times or setup timezone preferences in your user account.

Time Position Orientation Groundspeed Altitude Reporting Facility
EDT Latitude Longitude Course Direction KTS MPH feet Rate Location/Type
Fri 04:02:20 PM 32.8500 -97.0333 90° East 188 216 2,900  Level Dallas / Fort Worth TRACON
Fri 04:03:21 PM 32.7833 -97.0333 180° South 221 254 5,600 2,479 Climbing Dallas / Fort Worth TRACON
Fri 04:04:00 PM 32.6862 -96.7679 77° East  Level FlightAware Approximate
Fri 04:04:21 PM 32.7333 -96.9833 140° Southeast 286 329 7,900  Level Dallas / Fort Worth TRACON
Fri 04:05:00 PM 32.7150 -96.6151 77° East  Level FlightAware Approximate
Fri 04:06:00 PM 32.7380 -96.4610 84° East  Level FlightAware Approximate
Fri 04:06:31 PM 32.7461 -96.7614 86° East 319 367 10,000  Level Fort Worth Center
Fri 04:07:00 PM 32.7500 -96.3050 90° East  Level FlightAware Approximate
Fri 04:07:31 PM 32.7494 -96.6206 88° East 367 422 12,300  Level Fort Worth Center
Fri 04:08:31 PM 32.7550 -96.5019 87° East 391 450 15,300 2,800 Climbing Fort Worth Center
Fri 04:09:31 PM 32.7581 -96.3561 89° East 397 457 17,900 1,900 Climbing Fort Worth Center
Fri 04:10:31 PM 32.7444 -96.2378 98° East 403 464 19,100 1,350 Climbing Fort Worth Center
Fri 04:11:31 PM 32.7200 -96.0850 101° East 418 481 20,600 1,100 Climbing Fort Worth Center
Fri 04:12:31 PM 32.6997 -95.9569 101° East 430 495 21,300 950 Climbing Fort Worth Center
Fri 04:13:31 PM 32.6747 -95.7919 100° East 456 525 22,500 1,300 Climbing Fort Worth Center
Fri 04:14:31 PM 32.6600 -95.6294 96° East 482 555 23,900 1,250 Climbing Fort Worth Center
Fri 04:15:31 PM 32.6664 -95.4886 87° East 488 562 25,000 1,000 Climbing Fort Worth Center
Fri 04:16:31 PM 32.6783 -95.3253 85° East 493 567 25,900 1,150 Climbing Fort Worth Center
Fri 04:17:31 PM 32.6856 -95.1450 87° East 493 567 27,300 1,250 Climbing Fort Worth Center
Fri 04:18:31 PM 32.6992 -94.9769 84° East 500 575 28,400 1,350 Climbing Fort Worth Center
Fri 04:19:31 PM 32.7064 -94.8089 87° East 505 581 30,000 1,350 Climbing Fort Worth Center
Fri 04:20:31 PM 32.6633 -94.6519 108° East 490 564 31,100 1,100 Climbing Fort Worth Center
Fri 04:21:31 PM 32.6142 -94.5156 113° Southeast 490 564 32,200 850 Climbing Fort Worth Center
Fri 04:22:31 PM 32.5628 -94.3644 112° Southeast 495 570 32,800 400 Climbing Fort Worth Center
Fri 04:23:31 PM 32.5131 -94.2108 111° Southeast 495 570 33,000 100 Climbing Fort Worth Center
Fri 04:24:31 PM 32.4611 -94.0600 112° Southeast 495 570 33,000  Level Fort Worth Center
Fri 04:25:31 PM 32.4089 -93.9069 112° Southeast 495 570 33,000  Level Fort Worth Center
Fri 04:26:31 PM 32.3586 -93.7564 112° Southeast 495 570 33,000  Level Fort Worth Center
Fri 04:27:31 PM 32.3083 -93.6061 112° Southeast 495 570 33,000  Level Fort Worth Center
Fri 04:29:19 PM 32.2114 -93.3353 113° Southeast 494 568 33,000  Level Houston Center
Fri 04:30:22 PM 32.1569 -93.1853 113° Southeast 496 571 33,000  Level Houston Center
Fri 04:31:24 PM 32.1039 -93.0361 113° Southeast 493 567 33,000  Level Houston Center
Fri 04:32:26 PM 32.0494 -92.8822 113° Southeast 491 565 33,000  Level Houston Center
Fri 04:33:28 PM 31.9967 -92.7353 113° Southeast 489 563 33,000  Level Houston Center
Fri 04:34:30 PM 31.9425 -92.5525 109° East 491 565 33,000 -48 Level Houston Center
Fri 04:35:32 PM 31.9008 -92.3992 108° East 492 566 32,900 -48 Descending Houston Center
Fri 04:36:34 PM 31.8606 -92.2475 107° East 489 563 32,900 48 Level Houston Center
Fri 04:37:37 PM 31.8192 -92.0944 108° East 489 563 33,000 48 Climbing Houston Center
Fri 04:38:39 PM 31.7781 -91.9422 108° East 493 567 33,000  Level Houston Center
Fri 04:39:41 PM 31.7378 -91.7903 107° East 487 560 33,000  Level Houston Center
Fri 04:40:43 PM 31.6875 -91.6094 108° East 485 558 33,000  Level Houston Center
Fri 04:41:45 PM 31.6456 -91.4586 108° East 486 559 33,000  Level Houston Center
Fri 04:42:47 PM 31.6025 -91.3069 108° East 488 562 33,000  Level Houston Center
Fri 04:43:49 PM 31.5611 -91.1556 108° East 488 562 33,000  Level Houston Center
Fri 04:44:51 PM 31.5150 -90.9928 108° East 491 565 33,000 -48 Level Houston Center
Fri 04:45:54 PM 31.4717 -90.8417 109° East 492 566 32,900  Descending Houston Center
Fri 04:46:56 PM 31.4297 -90.6889 108° East 492 566 33,000 48 Climbing Houston Center
Fri 04:47:58 PM 31.3864 -90.5364 108° East 493 567 33,000  Level Houston Center
Fri 04:49:00 PM 31.3344 -90.3542 108° East 492 566 33,000  Level Houston Center
Fri 04:50:02 PM 31.2994 -90.1986 105° East 495 570 33,000  Level Houston Center
Fri 04:51:04 PM 31.2814 -90.0394 98° East 491 565 33,000  Level Houston Center
Fri 04:52:06 PM 31.2617 -89.8792 98° East 496 571 33,000  Level Houston Center
Fri 04:53:09 PM 31.2419 -89.7206 98° East 493 567 33,000  Level Houston Center
Fri 04:54:11 PM 31.2228 -89.5611 98° East 494 568 33,000 -48 Level Houston Center
Fri 04:55:13 PM 31.1989 -89.3697 98° East 495 570 32,900  Descending Houston Center
Fri 04:56:15 PM 31.1775 -89.2106 99° East 496 571 33,000 48 Climbing Houston Center
Fri 04:57:17 PM 31.1564 -89.0503 99° East 498 573 33,000  Level Houston Center
Fri 04:58:19 PM 31.1367 -88.8942 98° East 496 571 33,000  Level Houston Center
Fri 04:59:21 PM 31.1150 -88.7339 99° East 500 575 33,000 -48 Level Houston Center
Fri 05:00:23 PM 31.0944 -88.5708 98° East 496 571 32,900 -48 Descending Houston Center
Fri 05:01:25 PM 31.0739 -88.4133 99° East 494 568 32,900 48 Level Houston Center
Fri 05:02:28 PM 31.0458 -88.2208 100° East 503 579 33,000 48 Climbing Houston Center
Fri 05:03:30 PM 31.0247 -88.0631 99° East 497 572 33,000  Level Houston Center
Fri 05:04:32 PM 31.0022 -87.9053 99° East 493 567 33,000 -48 Level Houston Center
Fri 05:05:34 PM 30.9786 -87.7483 100° East 492 566 32,900  Descending Houston Center
Fri 05:06:28 PM 30.9581 -87.6039 99° East 502 578 33,000 53 Climbing Jacksonville Center
Fri 05:07:28 PM 30.9344 -87.4478 100° East 497 572 33,000  Level Jacksonville Center
Fri 05:08:28 PM 30.9150 -87.2897 98° East 492 566 33,000  Level Jacksonville Center
Fri 05:09:28 PM 30.8933 -87.1314 99° East 492 566 33,000  Level Jacksonville Center
Fri 05:10:28 PM 30.8692 -86.9728 100° East 487 560 33,000  Level Jacksonville Center
Fri 05:11:28 PM 30.8492 -86.8147 98° East 487 560 33,000  Level Jacksonville Center
Fri 05:12:28 PM 30.8247 -86.6589 100° East 487 560 33,000  Level Jacksonville Center
Fri 05:13:28 PM 30.8231 -86.4969 91° East 487 560 33,000 -50 Level Jacksonville Center
Fri 05:14:28 PM 30.8211 -86.3372 91° East 487 560 32,900  Descending Jacksonville Center
Fri 05:15:28 PM 30.8150 -86.1750 92° East 492 566 33,000 50 Climbing Jacksonville Center
Fri 05:16:28 PM 30.8111 -86.0006 91° East 492 566 33,000 -50 Level Jacksonville Center
Fri 05:17:28 PM 30.8108 -85.8386 90° East 498 573 32,900  Descending Jacksonville Center
Fri 05:18:28 PM 30.8061 -85.6764 92° East 498 573 33,000 50 Climbing Jacksonville Center
Fri 05:19:28 PM 30.8053 -85.5167 90° East 498 573 33,000  Level Jacksonville Center
Fri 05:20:28 PM 30.8003 -85.3544 92° East 498 573 33,000  Level Jacksonville Center
Fri 05:21:28 PM 30.7969 -85.1950 91° East 498 573 33,000 -50 Level Jacksonville Center
Fri 05:22:28 PM 30.7933 -85.0400 92° East 493 567 32,900 -50 Descending Jacksonville Center
Fri 05:23:28 PM 30.7436 -84.8892 111° Southeast 483 556 32,900  Level Jacksonville Center
Fri 05:24:28 PM 30.6494 -84.7689 132° Southeast 477 549 32,900  Level Jacksonville Center
Fri 05:25:28 PM 30.5486 -84.6631 138° Southeast 483 556 32,900 50 Level Jacksonville Center
Fri 05:26:28 PM 30.4456 -84.5553 138° Southeast 483 556 33,000 50 Climbing Jacksonville Center
Fri 05:27:28 PM 30.3428 -84.4450 137° Southeast 496 571 33,000  Level Jacksonville Center
Fri 05:28:28 PM 30.2394 -84.3353 137° Southeast 496 571 33,000  Level Jacksonville Center
Fri 05:29:28 PM 30.1383 -84.2256 137° Southeast 496 571 33,000  Level Jacksonville Center
Fri 05:30:28 PM 30.0372 -84.1233 139° Southeast 496 571 33,000  Level Jacksonville Center
Fri 05:31:28 PM 29.9358 -84.0142 137° Southeast 491 565 33,000 -350 Level Jacksonville Center
Fri 05:32:28 PM 29.8325 -83.9100 139° Southeast 491 565 32,300 -850 Descending Jacksonville Center
Fri 05:33:28 PM 29.7161 -83.8275 148° Southeast 491 565 31,300 -1,050 Descending Jacksonville Center
Fri 05:34:28 PM 29.5933 -83.7500 151° Southeast 491 565 30,200 -1,100 Descending Jacksonville Center
Fri 05:35:28 PM 29.4750 -83.6750 151° Southeast 491 565 29,100 -1,150 Descending Jacksonville Center
Fri 05:36:28 PM 29.3586 -83.6003 151° Southeast 491 565 27,900 -1,250 Descending Jacksonville Center
Fri 05:37:28 PM 29.2358 -83.5233 151° Southeast 491 565 26,600 -1,350 Descending Jacksonville Center
Fri 05:38:28 PM 29.1214 -83.4464 150° Southeast 491 565 25,200 -1,700 Descending Jacksonville Center
Fri 05:39:28 PM 29.0067 -83.3744 151° Southeast 480 552 23,200 -2,000 Descending Jacksonville Center
Fri 05:40:28 PM 28.8986 -83.3028 150° Southeast 468 539 21,200 -1,950 Descending Jacksonville Center
Fri 05:41:28 PM 28.7944 -83.2361 151° Southeast 452 520 19,300 -1,800 Descending Jacksonville Center
Fri 05:42:28 PM 28.6900 -83.1742 153° Southeast 437 503 17,600 -1,943 Descending Jacksonville Center
Fri 05:43:13 PM 28.6167 -83.1167 145° Southeast 421 484 15,900 -2,094 Descending Tampa TRACON
Fri 05:44:14 PM 28.5167 -83.0667 156° South 415 478 13,900 -1,438 Descending Tampa TRACON
Fri 05:45:14 PM 28.4167 -83.0000 150° Southeast 403 464 13,000 -1,150 Descending Tampa TRACON
Fri 05:46:14 PM 28.3333 -82.9500 152° Southeast 371 427 11,600 -1,238 Descending Tampa TRACON
Fri 05:47:20 PM 28.2333 -82.8833 150° Southeast 339 390 10,400 -1,095 Descending Tampa TRACON
Fri 05:48:20 PM 28.1667 -82.8167 139° Southeast 298 343 9,300 -1,316 Descending Tampa TRACON
Fri 05:49:14 PM 28.1333 -82.7667 127° Southeast 288 331 7,900 -1,789 Descending Tampa TRACON
Fri 05:50:14 PM 28.0833 -82.7000 130° Southeast 278 320 5,900 -1,450 Descending Tampa TRACON
Fri 05:51:14 PM 28.0333 -82.6333 130° Southeast 251 289 5,000 -446 Descending Tampa TRACON
Fri 05:52:15 PM 27.9667 -82.6167 168° South 258 297 5,000 -496 Level Tampa TRACON
Fri 05:53:15 PM 27.9000 -82.6167 180° South 251 289 4,000 -1,000 Descending Tampa TRACON
Fri 05:54:15 PM 27.8167 -82.6167 180° South 249 287 3,000 -500 Descending Tampa TRACON
Fri 05:55:15 PM 27.7667 -82.6000 164° South 216 249 3,000  Level Tampa TRACON

Login

Don't have an account? Register now (free) for customized features, flight alerts, and more!